Time;durP1;ratioP1;P1;durP2;ratioP2;P2;SDS_P1;SDS_P2;PMS_P1;PMS_P2;Temp;Humidity;BMP_temperature;BMP_pressure;BME280_temperature;BME280_humidity;BME280_pressure;Samples;Min_cycle;Max_cycle;Signal;HPM_P1;HPM_P2
2023/05/20 00:00:03;;;;;;;8.23;2.80;;;;;;;12.57;71.47;101989.00;4993470;28;20496;-71
2023/05/20 00:02:30;;;;;;;6.32;2.63;;;;;;;12.49;71.23;101988.84;5001881;28;20470;-71
2023/05/20 00:04:56;;;;;;;5.18;2.55;;;;;;;12.44;71.41;101986.69;4992578;28;20061;-71
2023/05/20 00:07:21;;;;;;;5.35;2.22;;;;;;;12.40;71.43;101988.75;4997238;28;20526;-71
2023/05/20 00:09:47;;;;;;;9.95;2.42;;;;;;;12.36;71.34;101984.78;4995282;28;20105;-71
2023/05/20 00:12:12;;;;;;;10.40;2.53;;;;;;;12.31;71.25;101989.56;4995950;28;20026;-71
2023/05/20 00:14:38;;;;;;;6.82;2.95;;;;;;;12.25;71.36;101990.13;4999431;28;20050;-71
2023/05/20 00:17:03;;;;;;;6.00;2.55;;;;;;;12.22;71.20;101998.19;5007231;28;20049;-71
2023/05/20 00:19:29;;;;;;;6.90;2.50;;;;;;;12.18;70.80;101997.63;5006357;28;20124;-71
2023/05/20 00:21:56;;;;;;;7.43;2.50;;;;;;;12.13;71.24;101993.81;5001640;28;20030;-71
2023/05/20 00:24:22;;;;;;;6.38;2.63;;;;;;;12.11;71.03;101996.56;4998581;28;20052;-71
2023/05/20 00:26:48;;;;;;;6.68;2.67;;;;;;;12.10;70.50;101994.91;5000886;28;20120;-71
2023/05/20 00:29:13;;;;;;;4.45;2.63;;;;;;;11.99;70.71;101993.25;5012774;28;20488;-71
2023/05/20 00:31:39;;;;;;;3.78;2.35;;;;;;;11.93;71.31;102000.81;5029788;28;20041;-71
2023/05/20 00:34:04;;;;;;;5.05;2.35;;;;;;;11.88;71.23;101990.75;5010682;28;20080;-71
2023/05/20 00:36:30;;;;;;;5.18;2.40;;;;;;;11.80;71.30;101995.81;5006544;28;20034;-71
2023/05/20 00:38:55;;;;;;;5.13;2.10;;;;;;;11.80;71.56;101994.03;5014784;28;20577;-71
2023/05/20 00:41:21;;;;;;;4.88;2.40;;;;;;;11.80;71.62;101988.03;5015460;28;20041;-72
2023/05/20 00:43:46;;;;;;;4.22;2.05;;;;;;;11.77;71.56;101999.53;5014869;28;20049;-71
2023/05/20 00:46:12;;;;;;;4.88;2.58;;;;;;;11.74;71.55;101986.78;5018876;28;20512;-71
2023/05/20 00:48:44;;;;;;;4.53;2.10;;;;;;;11.75;71.72;101992.81;5012380;28;20050;-71
2023/05/20 00:51:11;;;;;;;5.10;2.95;;;;;;;11.75;71.65;101987.59;5017216;28;20045;-71
2023/05/20 00:53:37;;;;;;;7.45;2.75;;;;;;;11.73;71.97;101986.91;5010540;28;20443;-71
2023/05/20 00:56:03;;;;;;;7.60;2.10;;;;;;;11.69;72.19;101986.38;4995999;28;20101;-71
2023/05/20 00:58:30;;;;;;;5.30;2.33;;;;;;;11.68;71.92;101976.94;4996732;28;20041;-71
2023/05/20 01:00:55;;;;;;;3.83;1.95;;;;;;;11.66;72.04;101971.88;5003154;28;20154;-71
2023/05/20 01:03:21;;;;;;;8.98;2.22;;;;;;;11.65;71.99;101983.22;4999100;28;20042;-71
2023/05/20 01:05:46;;;;;;;9.77;2.17;;;;;;;11.64;72.18;101984.19;5017379;28;20481;-71
2023/05/20 01:08:12;;;;;;;5.72;2.78;;;;;;;11.63;72.63;101985.13;5028963;28;20068;-71
2023/05/20 01:10:42;;;;;;;3.92;1.92;;;;;;;11.61;73.23;101986.22;5020931;28;20034;-71
2023/05/20 01:13:14;;;;;;;4.57;2.22;;;;;;;11.59;73.82;101983.75;5016895;28;20052;-71
2023/05/20 01:15:40;;;;;;;4.55;2.40;;;;;;;11.58;74.11;101986.47;5019336;28;20128;-71
2023/05/20 01:18:09;;;;;;;3.85;2.28;;;;;;;11.55;74.53;101978.97;5022722;28;20476;-71
2023/05/20 01:20:36;;;;;;;4.95;2.40;;;;;;;11.53;74.82;101986.03;5018443;28;20036;-71
2023/05/20 01:23:03;;;;;;;5.05;2.05;;;;;;;11.49;74.94;101975.94;5011077;28;20133;-71
2023/05/20 01:25:28;;;;;;;6.43;2.67;;;;;;;11.45;75.41;101986.72;5015189;28;20049;-71
2023/05/20 01:27:56;;;;;;;8.57;2.58;;;;;;;11.38;75.47;101994.22;5017707;28;20523;-71
2023/05/20 01:30:27;;;;;;;5.47;2.30;;;;;;;11.36;75.79;101990.09;5013973;28;20033;-71
2023/05/20 01:33:01;;;;;;;7.80;2.67;;;;;;;11.33;75.83;101985.19;5016908;28;20701;-72
2023/05/20 01:35:29;;;;;;;4.30;2.42;;;;;;;11.25;75.81;101988.44;5022340;28;20029;-71
2023/05/20 01:37:57;;;;;;;4.75;2.05;;;;;;;11.20;75.78;101985.41;5018657;28;20034;-71
2023/05/20 01:40:24;;;;;;;4.28;2.55;;;;;;;11.16;76.32;101984.03;5017794;28;20130;-71
2023/05/20 01:42:54;;;;;;;5.22;2.33;;;;;;;11.13;76.32;101982.50;5026179;28;20149;-72
2023/05/20 01:45:20;;;;;;;6.53;2.42;;;;;;;11.11;76.61;101987.00;5023140;28;20037;-71
2023/05/20 01:47:45;;;;;;;5.53;2.55;;;;;;;11.09;76.68;101978.53;5025236;28;20116;-71
2023/05/20 01:50:11;;;;;;;8.18;3.20;;;;;;;11.06;76.04;101974.44;5008929;28;20488;-71
2023/05/20 01:52:36;;;;;;;3.92;2.78;;;;;;;11.04;76.14;101978.13;5025627;28;20033;-71
2023/05/20 01:55:02;;;;;;;4.95;2.20;;;;;;;10.98;76.27;101970.84;5019893;28;20045;-71
2023/05/20 01:57:28;;;;;;;5.82;2.15;;;;;;;10.95;76.66;101966.75;5013664;28;20039;-71
2023/05/20 01:59:54;;;;;;;5.05;2.17;;;;;;;10.95;76.71;101971.13;5014339;28;20033;-71
2023/05/20 02:02:20;;;;;;;5.70;2.40;;;;;;;10.90;76.75;101969.72;5023097;28;20061;-71
2023/05/20 02:04:49;;;;;;;5.47;2.53;;;;;;;10.88;76.90;101971.63;5022330;28;20108;-71
2023/05/20 02:07:15;;;;;;;5.55;2.78;;;;;;;10.85;77.22;101963.25;5019098;28;20084;-71
2023/05/20 02:09:41;;;;;;;4.80;2.38;;;;;;;10.85;77.23;101963.25;5009660;28;20046;-71
2023/05/20 02:12:07;;;;;;;5.20;2.17;;;;;;;10.82;77.40;101968.72;4997104;28;20227;-71
2023/05/20 02:14:34;;;;;;;8.15;2.30;;;;;;;10.80;77.36;101966.25;5008258;28;20046;-71
2023/05/20 02:16:59;;;;;;;4.22;2.13;;;;;;;10.77;77.48;101965.69;5016322;28;20089;-71
2023/05/20 02:19:26;;;;;;;3.88;2.45;;;;;;;10.72;77.68;101971.28;5028232;28;20429;-71
2023/05/20 02:21:51;;;;;;;9.68;2.45;;;;;;;10.73;76.80;101967.72;5017826;28;20095;-71
2023/05/20 02:24:17;;;;;;;6.75;2.38;;;;;;;10.68;77.09;101964.69;5017806;28;20076;-71
2023/05/20 02:26:44;;;;;;;8.85;2.55;;;;;;;10.64;77.74;101965.88;5017939;28;20029;-71
2023/05/20 02:29:10;;;;;;;7.13;3.03;;;;;;;10.62;77.91;101960.81;5017058;28;20053;-72
2023/05/20 02:31:35;;;;;;;8.63;3.03;;;;;;;10.61;78.06;101966.16;5024570;28;20033;-71
2023/05/20 02:34:03;;;;;;;4.50;2.42;;;;;;;10.59;78.30;101958.50;5022778;28;20037;-71
2023/05/20 02:36:28;;;;;;;6.50;2.90;;;;;;;10.57;77.56;101956.97;5017667;28;20042;-71
2023/05/20 02:38:55;;;;;;;6.68;2.85;;;;;;;10.56;77.64;101956.16;5007765;28;20046;-71
2023/05/20 02:41:21;;;;;;;6.53;2.58;;;;;;;10.53;77.79;101959.03;5005193;28;20026;-71
2023/05/20 02:43:47;;;;;;;5.00;2.42;;;;;;;10.51;78.01;101958.34;4992535;28;20507;-72
2023/05/20 02:46:12;;;;;;;5.40;2.63;;;;;;;10.47;78.07;101954.31;5000249;28;20038;-71
2023/05/20 02:48:38;;;;;;;8.35;2.67;;;;;;;10.47;78.40;101951.72;4993593;28;20045;-71
2023/05/20 02:51:04;;;;;;;8.95;3.90;;;;;;;10.44;78.02;101954.59;5001558;28;20041;-71
2023/05/20 02:53:29;;;;;;;9.27;3.72;;;;;;;10.43;78.07;101951.16;5010454;28;20040;-71
2023/05/20 02:55:56;;;;;;;5.60;2.80;;;;;;;10.42;78.57;101951.31;5007498;28;20025;-71
2023/05/20 02:58:25;;;;;;;6.25;2.95;;;;;;;10.38;78.72;101945.56;4988737;28;20460;-71
2023/05/20 03:00:51;;;;;;;7.50;2.63;;;;;;;10.33;78.95;101945.09;5000551;28;20409;-71
2023/05/20 03:03:18;;;;;;;7.18;2.70;;;;;;;10.31;79.27;101945.22;5014369;28;20083;-71
2023/05/20 03:05:44;;;;;;;7.15;2.95;;;;;;;10.28;79.45;101945.47;5020694;28;20034;-71
2023/05/20 03:08:11;;;;;;;4.80;2.78;;;;;;;10.26;79.55;101954.28;5005634;28;20184;-71
2023/05/20 03:10:38;;;;;;;5.60;2.70;;;;;;;10.25;79.34;101945.69;5019830;28;20034;-71
2023/05/20 03:13:07;;;;;;;9.10;3.10;;;;;;;10.22;79.17;101948.53;4995923;28;20048;-71
2023/05/20 03:15:35;;;;;;;8.45;3.15;;;;;;;10.22;79.51;101942.53;5018665;28;20112;-71
2023/05/20 03:18:01;;;;;;;7.53;3.13;;;;;;;10.19;79.46;101951.41;5016360;28;20091;-71
2023/05/20 03:20:28;;;;;;;8.43;2.90;;;;;;;10.15;79.75;101955.16;5003616;28;20038;-71
2023/05/20 03:22:54;;;;;;;12.43;3.83;;;;;;;10.15;80.13;101955.16;4998887;28;20492;-71
2023/05/20 03:25:21;;;;;;;15.73;3.60;;;;;;;10.16;79.94;101956.00;5003775;28;20038;-71
2023/05/20 03:27:47;;;;;;;9.25;4.45;;;;;;;10.14;80.30;101943.16;4991107;28;20037;-71
2023/05/20 03:30:13;;;;;;;7.00;3.20;;;;;;;10.15;80.19;101947.38;4992709;28;20038;-71
2023/05/20 03:32:38;;;;;;;9.32;2.47;;;;;;;10.18;80.18;101939.38;5005770;28;20034;-71
2023/05/20 03:35:05;;;;;;;8.43;3.05;;;;;;;10.22;80.02;101945.94;4999887;28;20057;-71
2023/05/20 03:37:31;;;;;;;5.72;2.80;;;;;;;10.19;80.26;101947.97;4999306;28;20427;-71
2023/05/20 03:39:56;;;;;;;6.32;3.20;;;;;;;10.20;80.23;101939.25;5004141;28;20041;-71
2023/05/20 03:42:22;;;;;;;6.25;2.95;;;;;;;10.17;80.85;101937.75;4998812;28;20040;-71
2023/05/20 03:44:48;;;;;;;7.03;3.28;;;;;;;10.18;81.58;101941.97;5007606;28;20038;-71
2023/05/20 03:47:14;;;;;;;6.03;3.25;;;;;;;10.16;81.36;101940.47;5003686;28;20032;-71
2023/05/20 03:49:40;;;;;;;5.70;3.17;;;;;;;10.17;81.28;101929.13;5009543;28;20540;-71
2023/05/20 03:52:06;;;;;;;6.78;3.03;;;;;;;10.16;81.27;101938.69;5019396;28;20053;-72
2023/05/20 03:54:34;;;;;;;7.72;3.30;;;;;;;10.14;81.16;101933.63;5017526;28;20142;-71
2023/05/20 03:56:59;;;;;;;6.07;2.97;;;;;;;10.15;81.75;101934.44;5013457;28;20034;-71
2023/05/20 03:59:26;;;;;;;9.38;3.42;;;;;;;10.17;82.05;101931.72;5017213;28;20048;-71
2023/05/20 04:01:52;;;;;;;8.82;3.30;;;;;;;10.13;81.84;101938.91;5006826;23;20042;-69
2023/05/20 04:04:17;;;;;;;10.48;3.80;;;;;;;10.15;81.61;101937.00;4978403;28;20093;-69
2023/05/20 04:06:43;;;;;;;9.57;3.00;;;;;;;10.11;82.29;101944.25;4978176;28;20041;-70
2023/05/20 04:09:10;;;;;;;9.00;3.33;;;;;;;10.07;82.80;101936.84;4965571;28;20053;-69
2023/05/20 04:11:35;;;;;;;12.00;3.53;;;;;;;10.07;82.97;101939.41;4948145;28;20054;-69
2023/05/20 04:14:00;;;;;;;7.22;3.40;;;;;;;10.08;83.01;101943.66;4952889;28;20635;-69
2023/05/20 04:16:28;;;;;;;9.27;3.38;;;;;;;10.04;83.42;101934.47;4926300;28;20066;-69
2023/05/20 04:18:54;;;;;;;7.50;3.00;;;;;;;10.03;83.46;101940.63;4945022;28;20031;-70
2023/05/20 04:21:20;;;;;;;8.30;3.20;;;;;;;10.01;83.96;101943.34;4958893;28;20035;-69
2023/05/20 04:23:46;;;;;;;7.45;2.70;;;;;;;10.04;83.81;101947.44;4944385;28;20035;-70
2023/05/20 04:26:12;;;;;;;8.48;3.10;;;;;;;10.07;84.05;101935.06;4941304;29;20035;-69
2023/05/20 04:28:37;;;;;;;7.80;3.33;;;;;;;10.04;83.98;101934.47;4926929;29;20071;-69
2023/05/20 04:31:03;;;;;;;6.97;3.15;;;;;;;10.09;84.00;101932.34;4932587;29;20567;-69
2023/05/20 04:33:31;;;;;;;10.45;2.97;;;;;;;10.11;84.10;101925.25;4951447;28;20049;-69
2023/05/20 04:35:57;;;;;;;8.10;3.97;;;;;;;10.15;84.43;101934.44;4961891;28;20031;-69
2023/05/20 04:38:31;;;;;;;9.40;3.50;;;;;;;10.12;84.54;101930.31;4963107;28;20047;-69
2023/05/20 04:41:01;;;;;;;7.80;3.90;;;;;;;10.13;85.08;101929.41;4961984;28;20031;-69
2023/05/20 04:43:28;;;;;;;9.93;4.00;;;;;;;10.16;85.23;101932.69;4962699;28;20047;-69
2023/05/20 04:46:04;;;;;;;8.00;3.55;;;;;;;10.20;84.92;101932.28;4959486;28;20034;-69
2023/05/20 04:48:31;;;;;;;10.35;3.80;;;;;;;10.21;85.24;101931.34;4943690;28;20035;-70
2023/05/20 04:50:56;;;;;;;10.52;3.65;;;;;;;10.24;85.31;101927.69;4961005;28;20062;-70
2023/05/20 04:53:22;;;;;;;9.57;3.90;;;;;;;10.29;85.45;101933.31;4957294;28;20577;-70
2023/05/20 04:55:48;;;;;;;7.07;3.60;;;;;;;10.31;85.25;101931.44;4955935;28;20039;-70
2023/05/20 04:58:16;;;;;;;10.05;3.42;;;;;;;10.32;85.82;101915.78;4970345;28;20412;-69
2023/05/20 05:00:43;;;;;;;8.57;3.65;;;;;;;10.40;85.97;101919.50;4932972;28;20043;-70
2023/05/20 05:03:08;;;;;;;8.60;3.15;;;;;;;10.51;84.96;101928.03;4952311;28;20517;-70
2023/05/20 05:05:35;;;;;;;7.65;3.30;;;;;;;10.65;84.75;101920.84;4955870;28;20046;-70
2023/05/20 05:08:02;;;;;;;6.70;3.13;;;;;;;10.67;84.29;101916.34;4964707;28;20042;-70
2023/05/20 05:10:28;;;;;;;6.60;3.38;;;;;;;10.81;83.76;101925.56;4958045;28;20037;-69
2023/05/20 05:12:54;;;;;;;8.63;3.55;;;;;;;10.90;83.89;101917.00;4965304;28;20026;-70
2023/05/20 05:15:20;;;;;;;8.38;3.45;;;;;;;10.97;83.97;101918.13;4953805;28;20082;-69
2023/05/20 05:17:46;;;;;;;5.43;2.80;;;;;;;11.04;83.35;101921.03;4958846;28;20446;-69
2023/05/20 05:20:12;;;;;;;8.27;3.35;;;;;;;11.14;83.68;101915.84;4962848;28;20458;-69
2023/05/20 05:22:40;;;;;;;6.22;2.92;;;;;;;11.21;82.94;101915.19;4965246;28;20041;-69
2023/05/20 05:25:11;;;;;;;9.98;3.40;;;;;;;11.32;82.51;101908.22;4964189;28;20034;-69
2023/05/20 05:27:37;;;;;;;9.75;3.10;;;;;;;11.44;82.76;101910.59;4958836;28;20094;-69
2023/05/20 05:30:04;;;;;;;10.80;3.55;;;;;;;11.48;82.45;101911.94;4948880;28;20035;-70
2023/05/20 05:32:30;;;;;;;6.07;3.20;;;;;;;11.63;81.40;101907.19;4967623;28;20035;-69
2023/05/20 05:34:55;;;;;;;9.82;3.60;;;;;;;11.68;81.55;101906.78;4950956;28;20416;-70
2023/05/20 05:37:21;;;;;;;7.18;3.40;;;;;;;11.82;81.54;101911.56;4958227;28;20030;-69
2023/05/20 05:39:47;;;;;;;9.80;3.50;;;;;;;11.91;80.31;101909.16;4961835;28;20039;-69
2023/05/20 05:42:12;;;;;;;6.90;2.83;;;;;;;11.98;79.74;101900.66;4968802;28;20748;-69
2023/05/20 05:44:38;;;;;;;6.60;3.60;;;;;;;12.24;77.78;101900.91;4963243;28;20047;-69
2023/05/20 05:47:06;;;;;;;9.18;3.97;;;;;;;12.36;76.97;101900.75;4965677;28;20097;-69
2023/05/20 05:49:32;;;;;;;7.82;3.40;;;;;;;12.52;76.83;101905.34;4967112;28;20493;-72
2023/05/20 05:51:58;;;;;;;11.60;3.78;;;;;;;12.72;75.47;101893.09;4966738;28;20033;-69
2023/05/20 05:54:24;;;;;;;12.90;3.90;;;;;;;12.96;75.18;101887.34;4965560;28;20404;-69
2023/05/20 05:56:50;;;;;;;8.93;4.57;;;;;;;13.13;74.51;101893.53;4968601;28;20033;-69
2023/05/20 05:59:16;;;;;;;9.18;3.42;;;;;;;13.41;74.03;101891.75;4945003;28;20443;-69
2023/05/20 06:01:42;;;;;;;15.65;3.90;;;;;;;13.60;72.72;101889.03;4959260;28;20200;-69
2023/05/20 06:04:08;;;;;;;8.70;4.32;;;;;;;13.72;70.88;101886.19;4959017;28;20620;-69
2023/05/20 06:06:34;;;;;;;9.38;3.85;;;;;;;13.89;70.51;101887.94;4967342;28;20607;-69
2023/05/20 06:09:00;;;;;;;20.98;3.85;;;;;;;13.91;69.42;101886.00;4948119;28;20039;-70
2023/05/20 06:11:26;;;;;;;15.18;3.47;;;;;;;13.99;69.26;101887.84;4959190;28;20042;-69
2023/05/20 06:13:51;;;;;;;9.02;3.55;;;;;;;14.17;69.49;101891.25;4963366;28;20051;-70
2023/05/20 06:16:17;;;;;;;6.85;3.22;;;;;;;14.36;68.56;101890.22;4976321;28;20031;-69
2023/05/20 06:18:44;;;;;;;6.20;3.20;;;;;;;14.56;67.51;101885.59;4947693;28;20047;-69
2023/05/20 06:21:11;;;;;;;8.18;3.38;;;;;;;14.78;66.78;101889.47;4968933;28;20058;-70
2023/05/20 06:23:37;;;;;;;10.35;3.53;;;;;;;14.98;66.41;101886.59;4963490;28;20042;-70
2023/05/20 06:26:05;;;;;;;8.55;3.25;;;;;;;15.10;64.79;101884.50;4967279;28;20034;-70
2023/05/20 06:28:31;;;;;;;7.60;3.00;;;;;;;15.26;65.69;101884.56;4958600;28;20035;-70
2023/05/20 06:30:56;;;;;;;6.65;3.10;;;;;;;15.23;64.47;101882.25;4972667;28;20074;-70
2023/05/20 06:33:27;;;;;;;8.55;3.08;;;;;;;15.24;64.23;101877.84;4947511;28;20046;-70
2023/05/20 06:35:57;;;;;;;6.05;2.85;;;;;;;15.27;62.71;101873.13;4958094;28;20031;-70
2023/05/20 06:38:23;;;;;;;6.10;2.83;;;;;;;15.60;63.43;101873.16;4967449;28;20037;-70
2023/05/20 06:40:50;;;;;;;7.32;2.97;;;;;;;15.81;62.78;101864.84;4958106;28;20121;-70
2023/05/20 06:43:16;;;;;;;6.70;2.85;;;;;;;15.75;60.99;101862.91;4967171;28;20074;-71
2023/05/20 06:45:52;;;;;;;7.05;2.90;;;;;;;16.05;60.61;101869.25;4956694;28;20030;-70
2023/05/20 06:48:31;;;;;;;6.25;2.92;;;;;;;16.02;60.63;101869.56;4957237;28;20074;-71
2023/05/20 06:50:57;;;;;;;4.53;2.53;;;;;;;16.17;61.09;101863.66;4959342;28;20049;-70
2023/05/20 06:53:22;;;;;;;6.72;3.00;;;;;;;15.79;61.05;101853.75;4966477;28;20484;-71
2023/05/20 06:55:48;;;;;;;6.00;3.15;;;;;;;15.65;62.61;101868.28;4958810;28;20037;-70
2023/05/20 06:58:13;;;;;;;4.47;2.63;;;;;;;15.61;62.07;101856.47;4966725;28;20077;-70
2023/05/20 07:00:39;;;;;;;5.82;3.97;;;;;;;15.70;61.64;101862.53;4945811;28;20027;-70
2023/05/20 07:03:04;;;;;;;5.50;2.65;;;;;;;16.19;61.06;101853.84;4951308;28;20097;-70
2023/05/20 07:05:30;;;;;;;7.80;2.80;;;;;;;16.09;60.53;101857.47;4964944;28;20035;-70
2023/05/20 07:07:56;;;;;;;3.95;2.92;;;;;;;16.23;59.62;101861.19;4946655;28;20027;-70
2023/05/20 07:10:22;;;;;;;10.45;2.88;;;;;;;16.59;59.47;101850.25;4961563;28;20676;-70
2023/05/20 07:12:47;;;;;;;5.40;2.45;;;;;;;16.58;60.82;101851.25;4978307;28;20091;-70
2023/05/20 07:15:13;;;;;;;8.57;2.97;;;;;;;16.60;60.26;101858.94;4963928;28;20027;-70
2023/05/20 07:17:39;;;;;;;9.30;3.22;;;;;;;16.62;60.71;101849.94;4959459;28;20034;-70
2023/05/20 07:20:05;;;;;;;6.88;2.80;;;;;;;16.73;59.11;101849.56;4965588;28;20057;-70
2023/05/20 07:22:31;;;;;;;4.82;2.90;;;;;;;16.79;58.54;101842.81;4957203;28;20058;-71
2023/05/20 07:25:07;;;;;;;5.20;3.08;;;;;;;17.15;57.74;101831.81;4957343;28;20133;-70
2023/05/20 07:27:35;;;;;;;5.88;2.95;;;;;;;17.56;55.24;101839.38;4958093;28;20043;-70
2023/05/20 07:30:01;;;;;;;5.13;2.55;;;;;;;17.41;55.11;101838.53;4945370;28;20036;-70
2023/05/20 07:32:28;;;;;;;5.25;3.15;;;;;;;17.55;55.72;101839.53;4957533;28;20031;-70
2023/05/20 07:34:54;;;;;;;4.30;2.63;;;;;;;17.31;57.44;101834.34;4965274;28;20047;-70
2023/05/20 07:37:20;;;;;;;6.32;3.00;;;;;;;17.26;57.40;101827.97;4957104;28;20070;-70
2023/05/20 07:39:45;;;;;;;8.43;2.85;;;;;;;17.28;57.14;101829.44;4966376;28;20050;-71
2023/05/20 07:42:11;;;;;;;5.47;2.85;;;;;;;17.67;58.28;101827.66;4965067;28;20042;-70
2023/05/20 07:44:39;;;;;;;7.32;2.50;;;;;;;18.38;54.84;101828.06;4963781;28;20055;-70
2023/05/20 07:47:05;;;;;;;5.45;3.10;;;;;;;18.88;53.22;101824.84;4965296;28;20602;-70
2023/05/20 07:49:31;;;;;;;5.93;2.72;;;;;;;18.89;51.81;101815.94;4944299;28;20035;-70
2023/05/20 07:51:57;;;;;;;5.70;2.90;;;;;;;19.05;51.58;101823.59;4964700;28;20113;-70
2023/05/20 07:54:23;;;;;;;5.45;2.65;;;;;;;18.55;51.93;101823.41;4955794;28;20051;-71
2023/05/20 07:56:51;;;;;;;4.22;2.63;;;;;;;18.50;52.88;101823.19;4954334;28;20062;-70
2023/05/20 07:59:17;;;;;;;3.83;2.55;;;;;;;18.13;53.71;101822.28;4942738;28;20089;-71
2023/05/20 08:01:45;;;;;;;5.28;2.90;;;;;;;17.49;56.10;101822.72;4957403;28;20463;-70
2023/05/20 08:04:13;;;;;;;4.45;2.70;;;;;;;17.07;57.47;101829.25;4959501;28;20150;-69
2023/05/20 08:06:40;;;;;;;5.05;2.80;;;;;;;16.94;58.03;101824.59;4963844;28;20035;-70
2023/05/20 08:09:09;;;;;;;3.90;2.28;;;;;;;16.96;58.65;101822.59;4943342;28;20035;-70
2023/05/20 08:11:39;;;;;;;5.00;3.10;;;;;;;16.92;58.56;101819.53;4980326;28;20109;-71
2023/05/20 08:14:05;;;;;;;5.55;2.80;;;;;;;17.12;57.39;101817.28;4960542;28;20489;-70
2023/05/20 08:16:36;;;;;;;5.68;2.58;;;;;;;17.49;56.82;101817.47;4961150;28;20035;-70
2023/05/20 08:19:02;;;;;;;5.32;2.95;;;;;;;17.21;56.60;101818.00;4962518;28;20042;-71
2023/05/20 08:21:28;;;;;;;5.63;2.72;;;;;;;17.20;57.45;101807.72;4964036;28;20065;-70
2023/05/20 08:23:53;;;;;;;6.88;2.83;;;;;;;17.17;58.03;101814.13;4958036;28;20602;-69
2023/05/20 08:26:19;;;;;;;5.43;2.92;;;;;;;17.07;57.61;101810.94;4961344;28;20030;-70
2023/05/20 08:28:45;;;;;;;6.18;3.17;;;;;;;16.94;58.91;101811.50;4956349;28;20101;-70
2023/05/20 08:31:12;;;;;;;5.25;2.88;;;;;;;16.83;58.94;101812.69;4961002;28;20089;-70
2023/05/20 08:33:37;;;;;;;5.93;3.08;;;;;;;16.94;59.36;101811.50;4950722;28;20127;-70
2023/05/20 08:36:03;;;;;;;6.15;2.88;;;;;;;16.86;58.47;101828.06;4944926;28;20035;-70
2023/05/20 08:38:29;;;;;;;4.40;2.88;;;;;;;16.67;59.88;101810.97;4965115;28;20131;-69
2023/05/20 08:40:56;;;;;;;5.85;2.90;;;;;;;16.77;60.53;101802.88;4963212;28;20035;-69
2023/05/20 08:43:23;;;;;;;6.05;2.95;;;;;;;17.13;60.65;101799.75;4964353;28;20428;-70
2023/05/20 08:45:51;;;;;;;5.75;3.25;;;;;;;17.21;61.15;101804.91;4961840;28;20113;-70
2023/05/20 08:48:18;;;;;;;4.57;2.85;;;;;;;17.47;58.89;101811.59;4965365;28;20046;-70
2023/05/20 08:50:50;;;;;;;5.45;3.17;;;;;;;17.85;58.87;101798.47;4965575;28;20520;-70
2023/05/20 08:53:16;;;;;;;6.30;2.97;;;;;;;18.15;59.27;101801.13;4956011;28;20526;-70
2023/05/20 08:55:45;;;;;;;6.38;3.20;;;;;;;18.31;58.40;101803.56;4958042;28;20027;-70
2023/05/20 08:58:11;;;;;;;8.48;3.35;;;;;;;18.22;58.16;101794.94;4963347;28;20130;-70
2023/05/20 09:00:37;;;;;;;5.75;3.40;;;;;;;18.13;57.23;101798.66;4961673;28;20055;-70
2023/05/20 09:03:03;;;;;;;6.65;3.25;;;;;;;17.70;57.19;101806.31;4962393;28;20500;-70
2023/05/20 09:05:29;;;;;;;7.63;3.88;;;;;;;17.54;58.28;101815.16;4960970;28;20033;-69
2023/05/20 09:08:07;;;;;;;6.05;3.70;;;;;;;17.41;59.12;101810.50;4957317;28;20114;-70
2023/05/20 09:10:33;;;;;;;6.43;4.38;;;;;;;17.46;59.01;101807.31;4957962;28;20035;-70
2023/05/20 09:13:03;;;;;;;9.70;3.88;;;;;;;17.36;59.78;101812.00;4959014;28;20027;-70
2023/05/20 09:15:29;;;;;;;7.97;4.20;;;;;;;17.80;60.22;101804.25;4960429;28;20027;-70
2023/05/20 09:17:55;;;;;;;7.25;3.90;;;;;;;17.64;57.62;101791.28;4959862;28;20041;-70
2023/05/20 09:20:22;;;;;;;7.75;3.78;;;;;;;18.08;57.72;101793.97;4960574;28;20035;-70
2023/05/20 09:22:51;;;;;;;10.23;3.90;;;;;;;18.54;57.92;101797.38;4963781;28;20030;-71
2023/05/20 09:25:21;;;;;;;6.30;3.67;;;;;;;18.63;57.90;101793.63;4956127;28;20494;-70
2023/05/20 09:27:48;;;;;;;8.35;4.05;;;;;;;18.81;56.83;101796.66;4975914;28;20031;-71
2023/05/20 09:30:17;;;;;;;11.38;5.28;;;;;;;18.91;55.89;101792.91;4962483;28;20232;-70
2023/05/20 09:32:42;;;;;;;8.50;4.10;;;;;;;19.09;56.10;101787.25;4955269;28;20038;-70
2023/05/20 09:35:12;;;;;;;9.50;4.25;;;;;;;19.08;54.20;101785.59;4953368;28;20043;-70
2023/05/20 09:37:41;;;;;;;6.78;3.92;;;;;;;19.23;54.44;101786.34;4970333;28;20266;-70
2023/05/20 09:40:11;;;;;;;8.55;4.28;;;;;;;18.70;55.76;101793.69;4971712;28;20260;-70
2023/05/20 09:43:06;;;;;;;7.25;3.72;;;;;;;18.71;56.00;101795.31;4976356;28;20031;-70
2023/05/20 09:45:32;;;;;;;9.60;4.47;;;;;;;18.79;55.42;101792.56;4957686;28;20409;-70
2023/05/20 09:48:00;;;;;;;11.05;5.00;;;;;;;18.38;57.13;101788.69;4952216;28;20035;-70
2023/05/20 09:50:27;;;;;;;9.77;4.57;;;;;;;18.28;56.60;101791.59;4942691;28;20098;-70
2023/05/20 09:52:54;;;;;;;6.78;4.13;;;;;;;18.52;56.33;101794.91;4936614;28;20122;-71
2023/05/20 09:55:22;;;;;;;8.93;4.78;;;;;;;18.97;56.67;101786.94;4943476;28;20039;-70
2023/05/20 09:57:47;;;;;;;10.68;4.25;;;;;;;19.31;56.10;101780.97;4921626;28;20078;-71
2023/05/20 10:00:16;;;;;;;10.82;4.13;;;;;;;19.28;55.92;101791.84;4940516;28;20031;-70
2023/05/20 10:02:46;;;;;;;10.50;4.43;;;;;;;19.48;54.98;101784.13;4944714;28;20032;-70
2023/05/20 10:05:16;;;;;;;13.75;4.95;;;;;;;19.46;54.92;101786.13;4946416;28;20421;-69
2023/05/20 10:08:00;;;;;;;10.43;4.80;;;;;;;19.80;55.62;101781.94;4954757;28;20032;-69
2023/05/20 10:10:32;;;;;;;6.97;4.30;;;;;;;19.52;53.87;101776.66;4956784;28;20070;-70
2023/05/20 10:13:14;;;;;;;9.57;3.92;;;;;;;20.21;55.35;101773.22;4972627;23;20421;-71
2023/05/20 10:15:45;;;;;;;8.70;4.63;;;;;;;20.29;51.28;101783.59;4969937;28;20042;-72
2023/05/20 10:18:17;;;;;;;8.43;4.07;;;;;;;19.87;53.61;101774.88;4979803;28;20428;-72
2023/05/20 10:20:50;;;;;;;7.10;3.92;;;;;;;19.43;52.71;101775.97;4978510;28;20229;-73
2023/05/20 10:23:29;;;;;;;7.93;3.85;;;;;;;19.37;54.21;101763.59;4972905;28;20065;-72
2023/05/20 10:25:56;;;;;;;7.18;4.60;;;;;;;19.18;53.96;101779.03;4940456;28;20066;-73
2023/05/20 10:28:29;;;;;;;7.68;4.57;;;;;;;19.42;54.74;101776.97;4966960;28;20054;-72
2023/05/20 10:30:54;;;;;;;;;;;;;;;19.44;55.20;101769.72;4962361;28;20063;-72
2023/05/20 10:33:20;;;;;;;9.88;4.15;;;;;;;19.71;54.55;101762.81;4961155;28;20404;-73
2023/05/20 10:35:53;;;;;;;7.20;4.50;;;;;;;19.38;54.03;101779.19;4975969;28;20105;-73
2023/05/20 10:38:20;;;;;;;9.13;5.13;;;;;;;19.31;55.64;101773.06;4974080;28;20097;-73
2023/05/20 10:40:45;;;;;;;6.65;4.82;;;;;;;19.05;55.17;101763.16;4959289;28;20039;-72
2023/05/20 10:43:13;;;;;;;6.47;4.80;;;;;;;19.41;55.57;101764.84;4959196;28;20042;-72
2023/05/20 10:45:49;;;;;;;9.73;4.90;;;;;;;19.44;55.53;101752.13;4940565;28;20520;-72
2023/05/20 10:48:27;;;;;;;14.82;5.97;;;;;;;19.38;54.71;101752.06;4971048;28;20061;-73
2023/05/20 10:51:03;;;;;;;10.65;5.72;;;;;;;19.10;55.97;101760.78;4977296;28;20504;-73
2023/05/20 10:53:37;;;;;;;9.35;5.28;;;;;;;19.50;55.63;101766.34;4975609;28;20184;-72
2023/05/20 10:56:02;;;;;;;8.90;4.93;;;;;;;19.44;54.14;101761.84;4962722;28;20038;-72
2023/05/20 10:58:36;;;;;;;6.22;4.47;;;;;;;19.45;55.89;101759.00;4961633;28;20393;-72
2023/05/20 11:01:02;;;;;;;9.43;4.57;;;;;;;20.12;55.41;101758.63;4954929;28;20041;-72
2023/05/20 11:03:28;;;;;;;8.10;4.80;;;;;;;20.40;54.91;101751.41;4961004;28;20419;-72
2023/05/20 11:05:54;;;;;;;12.25;5.60;;;;;;;19.58;53.26;101749.59;4960194;28;20045;-73
2023/05/20 11:08:20;;;;;;;9.80;5.70;;;;;;;19.48;54.18;101749.94;4961911;28;20046;-73
2023/05/20 11:10:46;;;;;;;10.23;5.13;;;;;;;19.77;53.91;101751.53;4972477;28;20125;-72
2023/05/20 11:13:14;;;;;;;10.10;4.53;;;;;;;19.88;54.59;101744.13;4973927;28;20042;-73
2023/05/20 11:15:40;;;;;;;11.07;4.65;;;;;;;20.11;54.71;101752.53;4973944;28;20046;-73
2023/05/20 11:18:06;;;;;;;10.23;4.85;;;;;;;20.44;55.63;101741.31;4958592;28;20097;-72
2023/05/20 11:20:33;;;;;;;9.68;4.47;;;;;;;20.76;53.94;101749.50;4971797;28;20042;-73
2023/05/20 11:23:00;;;;;;;7.93;4.45;;;;;;;20.74;52.39;101736.53;4961864;28;20038;-73